Time;durP1;ratioP1;P1;durP2;ratioP2;P2;SDS_P1;SDS_P2;PMS_P1;PMS_P2;Temp;Humidity;BMP_temperature;BMP_pressure;BME280_temperature;BME280_humidity;BME280_pressure;Samples;Min_cycle;Max_cycle;Signal;HPM_P1;HPM_P2
2022/10/20 00:00:15;;;;;;;6.13;4.37;;;4.90;99.90;;;;;;5116966;28;20217;-79
2022/10/20 00:02:42;;;;;;;11.33;4.93;;;4.90;99.90;;;;;;5117709;28;20712;-80
2022/10/20 00:05:09;;;;;;;6.83;4.37;;;5.00;99.90;;;;;;5117384;28;20205;-79
2022/10/20 00:07:35;;;;;;;6.20;4.53;;;4.80;99.90;;;;;;5117416;28;20200;-80
2022/10/20 00:10:02;;;;;;;7.80;5.10;;;5.00;99.90;;;;;;5117465;28;20216;-79
2022/10/20 00:12:30;;;;;;;7.23;4.60;;;5.00;99.90;;;;;;5117333;28;20665;-80
2022/10/20 00:14:57;;;;;;;7.00;4.77;;;4.90;99.90;;;;;;5117218;28;20193;-80
2022/10/20 00:17:24;;;;;;;9.37;5.27;;;4.80;99.90;;;;;;5117593;28;20744;-79
2022/10/20 00:19:51;;;;;;;8.03;4.63;;;4.70;99.90;;;;;;5116359;28;20213;-80
2022/10/20 00:22:17;;;;;;;7.70;4.70;;;4.80;99.90;;;;;;5116948;28;20201;-79
2022/10/20 00:24:44;;;;;;;7.33;4.43;;;4.80;99.90;;;;;;5115868;28;20201;-80
2022/10/20 00:27:11;;;;;;;10.07;4.60;;;4.60;99.90;;;;;;5116747;28;20211;-79
2022/10/20 00:29:39;;;;;;;5.40;3.90;;;4.70;99.90;;;;;;5119686;27;20216;-79
2022/10/20 00:32:06;;;;;;;7.10;4.53;;;4.40;99.90;;;;;;5121498;27;20204;-79
2022/10/20 00:34:33;;;;;;;8.07;5.10;;;4.50;99.90;;;;;;5116635;28;20201;-79
2022/10/20 00:37:00;;;;;;;8.27;4.90;;;4.60;99.90;;;;;;5117610;28;20205;-79
2022/10/20 00:39:27;;;;;;;7.27;4.87;;;4.60;99.90;;;;;;5116628;28;20216;-79
2022/10/20 00:41:53;;;;;;;6.53;4.53;;;4.50;99.90;;;;;;5115964;28;20193;-79
2022/10/20 00:44:48;;;;;;;5.77;4.40;;;4.50;99.90;;;;;;5116048;28;20193;-79
2022/10/20 00:47:21;;;;;;;8.53;5.03;;;4.60;99.90;;;;;;5115767;28;20213;-79
2022/10/20 00:49:49;;;;;;;7.87;5.07;;;4.60;99.90;;;;;;5116431;28;20231;-79
2022/10/20 00:52:19;;;;;;;6.87;5.10;;;4.30;99.90;;;;;;5115905;28;20272;-79
2022/10/20 00:54:47;;;;;;;6.90;5.33;;;4.20;99.90;;;;;;5116025;28;20201;-79
2022/10/20 00:57:14;;;;;;;8.50;4.73;;;4.20;99.90;;;;;;5115349;28;20196;-80
2022/10/20 00:59:41;;;;;;;7.27;5.20;;;4.40;99.90;;;;;;5117037;28;20217;-79
2022/10/20 01:02:10;;;;;;;9.23;4.93;;;4.50;99.90;;;;;;5116561;28;20292;-79
2022/10/20 01:04:37;;;;;;;6.90;5.00;;;4.50;99.90;;;;;;5117297;28;20212;-79
2022/10/20 01:07:05;;;;;;;5.40;4.70;;;4.50;99.90;;;;;;5116752;28;20667;-79
2022/10/20 01:09:33;;;;;;;6.63;4.73;;;4.40;99.90;;;;;;5115024;28;20693;-80
2022/10/20 01:12:06;;;;;;;8.53;5.30;;;4.30;99.90;;;;;;5115521;28;20201;-80
2022/10/20 01:14:43;;;;;;;8.73;5.67;;;4.20;99.90;;;;;;5114000;28;20587;-79
2022/10/20 01:17:22;;;;;;;6.77;4.80;;;4.10;99.90;;;;;;5109802;28;20200;-79
2022/10/20 01:20:20;;;;;;;9.23;6.00;;;4.30;99.90;;;;;;5114148;28;20220;-79
2022/10/20 01:23:11;;;;;;;6.70;4.90;;;4.10;99.90;;;;;;5096124;28;20198;-80
2022/10/20 01:25:56;;;;;;;8.77;5.53;;;3.90;99.90;;;;;;5116397;28;20757;-79
2022/10/20 01:28:32;;;;;;;6.50;4.83;;;3.90;99.90;;;;;;5116222;28;20196;-79
2022/10/20 01:31:01;;;;;;;8.87;5.50;;;3.40;99.90;;;;;;5113785;28;20212;-79
2022/10/20 01:33:35;;;;;;;8.37;5.23;;;3.50;99.90;;;;;;5114694;28;20201;-79
2022/10/20 01:36:07;;;;;;;4.97;4.30;;;3.70;99.90;;;;;;5116309;28;20713;-79
2022/10/20 01:38:40;;;;;;;6.93;4.40;;;3.60;99.90;;;;;;5115384;28;20221;-79
2022/10/20 01:41:12;;;;;;;7.50;5.13;;;3.40;99.90;;;;;;5116261;28;20205;-79
2022/10/20 01:43:43;;;;;;;5.90;4.93;;;3.50;99.90;;;;;;5115564;28;20578;-79
2022/10/20 01:46:12;;;;;;;4.57;3.93;;;3.60;99.90;;;;;;5114769;28;20197;-79
2022/10/20 01:48:39;;;;;;;7.07;4.37;;;3.60;99.90;;;;;;5114146;28;20232;-79
2022/10/20 01:51:08;;;;;;;5.93;4.47;;;3.20;99.90;;;;;;5113709;28;20247;-79
2022/10/20 01:53:35;;;;;;;5.70;4.37;;;3.30;99.90;;;;;;5115880;28;20203;-79
2022/10/20 01:56:03;;;;;;;8.07;4.77;;;3.40;99.90;;;;;;5114222;28;20208;-79
2022/10/20 01:59:00;;;;;;;8.83;5.10;;;3.40;99.90;;;;;;5113591;28;20221;-79
2022/10/20 02:01:48;;;;;;;8.90;5.20;;;3.30;99.90;;;;;;5115279;28;20197;-79
2022/10/20 02:04:17;;;;;;;7.07;4.80;;;3.50;99.90;;;;;;5099498;28;20201;-79
2022/10/20 02:06:50;;;;;;;11.33;5.13;;;3.50;99.90;;;;;;5114454;28;20201;-79
2022/10/20 02:09:23;;;;;;;9.20;5.30;;;3.50;99.90;;;;;;5115264;28;20228;-79
2022/10/20 02:11:56;;;;;;;8.67;5.10;;;3.60;99.90;;;;;;5114125;28;20217;-79
2022/10/20 02:14:23;;;;;;;7.17;5.27;;;3.60;99.90;;;;;;5115527;28;20200;-79
2022/10/20 02:16:56;;;;;;;10.07;6.13;;;3.90;99.90;;;;;;5114925;28;20193;-79
2022/10/20 02:19:26;;;;;;;8.40;6.10;;;4.10;99.90;;;;;;5113750;28;20225;-79
2022/10/20 02:21:56;;;;;;;9.13;6.17;;;4.40;99.90;;;;;;5112414;28;20189;-79
2022/10/20 02:24:27;;;;;;;9.50;5.80;;;4.50;99.90;;;;;;5114124;28;20201;-79
2022/10/20 02:26:57;;;;;;;10.70;5.60;;;4.60;99.90;;;;;;5114041;28;20205;-79
2022/10/20 02:29:29;;;;;;;9.90;5.83;;;4.40;99.90;;;;;;5112174;28;20217;-79
2022/10/20 02:31:58;;;;;;;10.50;5.50;;;4.30;99.90;;;;;;5113723;28;20213;-79
2022/10/20 02:34:26;;;;;;;8.50;5.67;;;4.40;99.90;;;;;;5114763;28;20193;-79
2022/10/20 02:36:56;;;;;;;7.07;4.73;;;4.70;99.90;;;;;;5103459;28;20213;-79
2022/10/20 02:39:23;;;;;;;9.43;5.13;;;4.80;99.90;;;;;;5115100;28;20219;-79
2022/10/20 02:41:50;;;;;;;7.60;5.40;;;4.60;99.90;;;;;;5112316;28;20201;-79
2022/10/20 02:44:17;;;;;;;7.20;4.87;;;4.60;99.90;;;;;;5113280;28;20196;-79
2022/10/20 02:46:44;;;;;;;6.60;4.83;;;4.20;99.90;;;;;;5114298;28;20227;-79
2022/10/20 02:49:12;;;;;;;6.17;4.70;;;3.90;99.90;;;;;;5112207;28;20213;-79
2022/10/20 02:51:39;;;;;;;5.83;4.37;;;3.80;99.90;;;;;;5111895;28;20224;-79
2022/10/20 02:54:05;;;;;;;7.50;4.60;;;3.60;99.90;;;;;;5109434;28;20197;-79
2022/10/20 02:56:32;;;;;;;6.23;4.40;;;3.50;99.90;;;;;;5114507;28;20467;-80
2022/10/20 02:58:59;;;;;;;7.73;4.70;;;3.70;99.90;;;;;;5114372;28;20232;-79
2022/10/20 03:01:26;;;;;;;8.13;4.33;;;3.70;99.90;;;;;;5113374;28;20193;-79
2022/10/20 03:03:57;;;;;;;7.13;4.97;;;3.60;99.90;;;;;;5106679;28;20231;-80
2022/10/20 03:06:26;;;;;;;8.90;5.43;;;3.70;99.90;;;;;;5112632;28;20240;-80
2022/10/20 03:08:52;;;;;;;7.43;4.47;;;3.90;99.90;;;;;;5112597;28;20227;-79
2022/10/20 03:11:19;;;;;;;6.80;5.23;;;3.50;99.90;;;;;;5115787;28;20212;-79
2022/10/20 03:13:46;;;;;;;7.67;4.67;;;3.60;99.90;;;;;;5113258;28;20197;-80
2022/10/20 03:16:13;;;;;;;9.93;5.57;;;3.70;99.90;;;;;;5114674;28;20197;-80
2022/10/20 03:18:39;;;;;;;8.07;5.27;;;3.80;99.90;;;;;;5108268;28;20229;-80
2022/10/20 03:21:06;;;;;;;6.63;4.80;;;3.50;99.90;;;;;;5115064;28;20197;-80
2022/10/20 03:23:34;;;;;;;8.10;4.63;;;3.60;99.90;;;;;;5114314;28;20278;-80
2022/10/20 03:26:02;;;;;;;9.20;4.60;;;3.70;99.90;;;;;;5114815;28;20591;-79
2022/10/20 03:28:29;;;;;;;5.43;4.07;;;3.00;99.90;;;;;;5113627;28;20700;-79
2022/10/20 03:30:56;;;;;;;7.13;4.87;;;2.80;99.90;;;;;;5113446;28;20589;-79
2022/10/20 03:33:23;;;;;;;8.10;5.23;;;2.80;99.90;;;;;;5113119;28;20201;-79
2022/10/20 03:35:50;;;;;;;9.43;5.93;;;3.20;99.90;;;;;;5114177;28;20205;-80
2022/10/20 03:38:17;;;;;;;9.27;5.73;;;3.60;99.90;;;;;;5115715;28;20211;-79
2022/10/20 03:40:45;;;;;;;11.40;6.27;;;3.70;99.90;;;;;;5114853;28;20197;-79
2022/10/20 03:43:14;;;;;;;8.27;5.70;;;3.80;99.90;;;;;;5115899;28;20193;-79
2022/10/20 03:45:41;;;;;;;7.97;5.80;;;3.80;99.90;;;;;;5114700;28;20205;-79
2022/10/20 03:48:08;;;;;;;7.40;5.20;;;3.90;99.90;;;;;;5115429;28;20213;-79
2022/10/20 03:50:34;;;;;;;9.37;5.60;;;3.80;99.90;;;;;;5114597;28;20193;-79
2022/10/20 03:53:01;;;;;;;9.93;5.80;;;3.80;99.90;;;;;;5115529;28;20205;-79
2022/10/20 03:55:28;;;;;;;7.07;5.77;;;3.70;99.90;;;;;;5117058;28;20650;-79
2022/10/20 03:57:56;;;;;;;10.30;5.50;;;3.70;99.90;;;;;;5119317;28;20646;-80
2022/10/20 04:00:23;;;;;;;11.23;6.33;;;3.80;99.90;;;;;;5119660;28;20235;-80
2022/10/20 04:02:50;;;;;;;7.13;5.10;;;3.80;99.90;;;;;;5117643;28;20200;-78
2022/10/20 04:05:19;;;;;;;8.27;5.17;;;3.80;99.90;;;;;;5117309;28;20201;-79
2022/10/20 04:07:47;;;;;;;10.40;5.53;;;3.90;99.90;;;;;;5098313;28;20202;-80
2022/10/20 04:10:16;;;;;;;6.87;5.27;;;3.70;99.90;;;;;;5101362;28;20231;-79
2022/10/20 04:12:43;;;;;;;8.93;5.80;;;3.70;99.90;;;;;;5116698;28;20220;-79
2022/10/20 04:15:11;;;;;;;6.80;4.87;;;3.70;99.90;;;;;;5118737;28;20211;-79
2022/10/20 04:17:38;;;;;;;6.97;5.00;;;3.90;99.90;;;;;;5118757;28;20227;-79
2022/10/20 04:20:08;;;;;;;6.50;5.10;;;3.80;99.90;;;;;;5116913;28;20576;-79
2022/10/20 04:22:34;;;;;;;6.23;4.90;;;3.70;99.90;;;;;;5117411;28;20193;-78
2022/10/20 04:25:01;;;;;;;5.73;4.50;;;3.20;99.90;;;;;;5117251;28;20986;-78
2022/10/20 04:27:28;;;;;;;6.07;4.60;;;3.10;99.90;;;;;;5118072;28;20317;-79
2022/10/20 04:29:55;;;;;;;6.70;4.20;;;3.20;99.90;;;;;;5116595;28;20205;-79
2022/10/20 04:32:24;;;;;;;8.70;4.60;;;3.20;99.90;;;;;;5116471;28;20213;-80
2022/10/20 04:34:50;;;;;;;12.30;11.17;;;3.20;99.90;;;;;;5118101;28;20211;-80
2022/10/20 04:37:17;;;;;;;5.00;4.47;;;3.10;99.90;;;;;;5118255;28;20272;-80
2022/10/20 04:39:44;;;;;;;10.10;5.30;;;2.90;99.90;;;;;;5118820;28;20235;-80
2022/10/20 04:42:11;;;;;;;7.73;4.77;;;3.00;99.90;;;;;;5118696;28;20197;-80
2022/10/20 04:44:38;;;;;;;7.70;4.60;;;3.10;99.90;;;;;;5117087;28;20212;-80
2022/10/20 04:47:04;;;;;;;6.77;4.90;;;3.10;99.90;;;;;;5118995;28;20212;-80
2022/10/20 04:49:33;;;;;;;6.23;4.90;;;3.40;99.90;;;;;;5118500;28;20232;-80
2022/10/20 04:51:59;;;;;;;5.60;4.60;;;3.30;99.90;;;;;;5118209;28;20678;-80
2022/10/20 04:54:26;;;;;;;10.80;6.80;;;3.30;99.90;;;;;;5119033;28;20655;-80
2022/10/20 04:56:53;;;;;;;13.37;7.17;;;3.40;99.90;;;;;;5119257;28;20201;-80
2022/10/20 04:59:20;;;;;;;11.33;6.20;;;3.60;99.90;;;;;;5118442;28;20225;-80
2022/10/20 05:01:46;;;;;;;5.90;4.73;;;3.60;99.90;;;;;;5117483;28;20203;-80
2022/10/20 05:04:19;;;;;;;8.67;5.53;;;3.50;99.90;;;;;;5118632;28;20220;-80
2022/10/20 05:06:48;;;;;;;9.33;4.83;;;3.40;99.90;;;;;;5118498;28;20230;-79
2022/10/20 05:09:15;;;;;;;7.03;4.50;;;3.00;99.90;;;;;;5118513;28;20228;-80
2022/10/20 05:11:42;;;;;;;8.40;4.53;;;2.80;99.90;;;;;;5117885;28;20700;-80
2022/10/20 05:14:09;;;;;;;8.73;5.10;;;2.80;99.90;;;;;;5118150;28;20200;-80
2022/10/20 05:16:36;;;;;;;9.87;6.80;;;2.90;99.90;;;;;;5118454;28;20207;-80
2022/10/20 05:19:03;;;;;;;6.03;4.50;;;3.00;99.90;;;;;;5118672;28;20231;-79
2022/10/20 05:21:31;;;;;;;7.17;4.70;;;3.00;99.90;;;;;;5117802;28;20201;-80
2022/10/20 05:24:01;;;;;;;6.83;4.30;;;2.70;99.90;;;;;;5118405;28;20197;-80
2022/10/20 05:26:33;;;;;;;8.90;5.13;;;3.00;99.90;;;;;;5118419;28;20197;-80
2022/10/20 05:29:00;;;;;;;8.80;4.83;;;3.30;99.90;;;;;;5118462;28;20221;-80
2022/10/20 05:31:27;;;;;;;10.20;5.27;;;3.30;99.90;;;;;;5118212;28;20229;-80
2022/10/20 05:33:55;;;;;;;12.40;5.63;;;3.40;99.90;;;;;;5118343;28;20201;-80
2022/10/20 05:36:24;;;;;;;7.00;4.40;;;3.30;99.90;;;;;;5118570;28;20219;-80
2022/10/20 05:38:52;;;;;;;6.33;4.17;;;3.20;99.90;;;;;;5118178;28;20217;-80
2022/10/20 05:41:22;;;;;;;7.67;4.60;;;2.70;99.90;;;;;;5117707;28;20227;-80
2022/10/20 05:43:49;;;;;;;10.80;5.37;;;3.00;99.90;;;;;;5117283;28;20562;-80
2022/10/20 05:46:16;;;;;;;9.30;5.57;;;3.00;99.90;;;;;;5118106;28;20201;-80
2022/10/20 05:48:43;;;;;;;10.47;5.30;;;3.30;99.90;;;;;;5117384;28;20229;-80
2022/10/20 05:51:14;;;;;;;8.47;4.97;;;3.30;99.90;;;;;;5116832;28;20205;-80
2022/10/20 05:53:41;;;;;;;8.17;4.80;;;3.30;99.90;;;;;;5117100;28;20203;-80
2022/10/20 05:56:11;;;;;;;8.10;5.40;;;3.20;99.90;;;;;;5117068;28;20692;-80
2022/10/20 05:58:40;;;;;;;9.57;5.97;;;3.40;99.90;;;;;;5117532;28;20263;-80
2022/10/20 06:01:08;;;;;;;11.63;5.97;;;3.70;99.90;;;;;;5117019;28;20213;-80
2022/10/20 06:03:35;;;;;;;9.90;5.50;;;4.00;99.90;;;;;;5117768;28;20645;-80
2022/10/20 06:06:03;;;;;;;7.97;4.83;;;4.00;99.90;;;;;;5117336;28;20278;-80
2022/10/20 06:08:31;;;;;;;13.77;6.20;;;3.90;99.90;;;;;;5117530;28;20228;-80
2022/10/20 06:11:02;;;;;;;7.03;5.20;;;4.20;99.90;;;;;;5117452;28;20253;-80
2022/10/20 06:13:29;;;;;;;10.37;5.90;;;4.20;99.90;;;;;;5117194;28;20205;-80
2022/10/20 06:16:01;;;;;;;8.70;5.23;;;3.90;99.90;;;;;;5117552;28;20287;-80
2022/10/20 06:18:28;;;;;;;7.20;5.40;;;3.50;99.90;;;;;;5116745;28;20216;-79
2022/10/20 06:20:59;;;;;;;10.07;6.10;;;3.30;99.90;;;;;;5117352;28;20201;-79
2022/10/20 06:23:26;;;;;;;7.37;5.40;;;3.60;99.90;;;;;;5117450;28;20200;-79
2022/10/20 06:25:53;;;;;;;9.73;5.53;;;3.90;99.90;;;;;;5116438;28;20232;-79
2022/10/20 06:28:20;;;;;;;8.40;5.43;;;4.40;99.90;;;;;;5117173;28;20696;-79
2022/10/20 06:30:47;;;;;;;8.97;5.87;;;4.70;99.90;;;;;;5117013;28;20207;-79
2022/10/20 06:33:15;;;;;;;7.60;5.20;;;4.90;99.90;;;;;;5116367;27;20212;-80
2022/10/20 06:35:42;;;;;;;11.17;5.80;;;5.00;99.90;;;;;;5134067;27;20270;-80
2022/10/20 06:38:09;;;;;;;10.87;5.57;;;5.00;99.90;;;;;;5132313;27;20203;-80
2022/10/20 06:40:36;;;;;;;7.93;5.40;;;5.10;99.90;;;;;;5117043;27;20205;-80
2022/10/20 06:43:03;;;;;;;7.63;5.13;;;5.20;99.90;;;;;;5113731;28;20201;-79
2022/10/20 06:45:29;;;;;;;9.67;5.60;;;5.10;99.90;;;;;;5115747;28;20209;-80
2022/10/20 06:47:56;;;;;;;7.50;5.20;;;5.00;99.90;;;;;;5116150;28;20211;-80
2022/10/20 06:50:24;;;;;;;10.73;6.20;;;5.00;99.90;;;;;;5117309;28;20229;-80
2022/10/20 06:52:51;;;;;;;8.47;5.47;;;5.10;99.90;;;;;;5116199;28;20220;-80
2022/10/20 06:55:18;;;;;;;8.60;5.43;;;5.20;99.90;;;;;;5116611;28;20200;-80
2022/10/20 06:57:44;;;;;;;7.80;5.70;;;5.40;99.90;;;;;;5116396;28;20197;-79
2022/10/20 07:00:12;;;;;;;11.07;6.43;;;5.50;99.90;;;;;;5113759;28;20221;-80
2022/10/20 07:02:39;;;;;;;11.13;7.07;;;5.60;99.90;;;;;;5114955;28;20197;-80
2022/10/20 07:05:07;;;;;;;9.33;5.83;;;5.60;99.90;;;;;;5115342;28;20718;-79
2022/10/20 07:07:35;;;;;;;10.23;5.70;;;5.70;99.90;;;;;;5116546;28;20197;-79
2022/10/20 07:10:01;;;;;;;10.80;6.13;;;5.70;99.90;;;;;;5116389;28;20220;-80
2022/10/20 07:12:28;;;;;;;11.37;7.23;;;5.80;99.90;;;;;;5116144;28;20262;-80
2022/10/20 07:14:55;;;;;;;10.43;6.17;;;5.80;99.90;;;;;;5116166;28;20197;-79
2022/10/20 07:17:22;;;;;;;9.40;6.73;;;5.90;99.90;;;;;;5116183;28;20208;-80
2022/10/20 07:19:48;;;;;;;12.03;7.50;;;5.90;99.90;;;;;;5115982;28;20624;-80
2022/10/20 07:22:15;;;;;;;12.53;7.10;;;6.00;99.90;;;;;;5116376;28;20209;-80
2022/10/20 07:24:43;;;;;;;11.80;6.70;;;6.00;99.90;;;;;;5116001;28;20212;-80
2022/10/20 07:27:10;;;;;;;13.17;7.60;;;6.10;99.90;;;;;;5116479;28;20205;-80
2022/10/20 07:29:37;;;;;;;13.80;8.40;;;6.20;99.90;;;;;;5116269;28;20235;-80
2022/10/20 07:32:04;;;;;;;14.07;7.50;;;6.40;99.90;;;;;;5120034;28;20224;-80
2022/10/20 07:34:31;;;;;;;13.30;6.90;;;6.50;99.90;;;;;;5120035;28;20237;-80
2022/10/20 07:36:58;;;;;;;12.77;7.33;;;6.50;99.90;;;;;;5119061;28;20205;-80
2022/10/20 07:39:26;;;;;;;15.40;8.00;;;6.60;99.90;;;;;;5119632;28;20688;-80
2022/10/20 07:41:54;;;;;;;13.07;7.77;;;6.80;99.90;;;;;;5119461;28;20205;-80
2022/10/20 07:44:21;;;;;;;11.37;6.77;;;6.90;99.90;;;;;;5119199;28;20433;-80
2022/10/20 07:46:48;;;;;;;14.27;8.07;;;7.00;99.90;;;;;;5120489;28;20683;-80
2022/10/20 07:49:14;;;;;;;11.10;7.30;;;7.10;99.90;;;;;;5119673;28;20220;-80
2022/10/20 07:51:41;;;;;;;11.23;6.77;;;7.20;99.90;;;;;;5120211;28;20201;-80
2022/10/20 07:54:10;;;;;;;12.97;7.50;;;7.20;99.90;;;;;;5120247;28;20193;-80
2022/10/20 07:56:39;;;;;;;13.03;7.10;;;7.20;99.90;;;;;;5119645;28;20291;-80
2022/10/20 07:59:08;;;;;;;13.13;7.23;;;7.20;99.90;;;;;;5119353;28;20221;-80
2022/10/20 08:01:35;;;;;;;13.20;7.07;;;7.20;99.90;;;;;;5118101;28;20208;-80
2022/10/20 08:04:02;;;;;;;12.40;7.00;;;7.30;99.90;;;;;;5120395;28;20205;-80
2022/10/20 08:06:29;;;;;;;12.47;7.13;;;7.30;99.90;;;;;;5118126;28;20661;-80
2022/10/20 08:08:56;;;;;;;13.10;7.20;;;7.40;99.90;;;;;;5119585;28;20216;-80
2022/10/20 08:11:23;;;;;;;12.23;7.17;;;7.60;99.90;;;;;;5117510;28;20203;-80
2022/10/20 08:13:50;;;;;;;13.73;7.03;;;7.60;99.90;;;;;;5119593;28;20224;-79
2022/10/20 08:16:19;;;;;;;13.10;8.17;;;7.60;99.90;;;;;;5119524;28;20300;-80
2022/10/20 08:18:45;;;;;;;11.03;6.77;;;7.70;99.90;;;;;;5119159;28;20235;-80
2022/10/20 08:21:14;;;;;;;15.10;7.50;;;7.80;99.90;;;;;;5118621;28;20205;-80
2022/10/20 08:23:43;;;;;;;12.77;6.70;;;7.80;99.90;;;;;;5119233;28;20301;-80
2022/10/20 08:26:10;;;;;;;10.50;7.00;;;7.90;99.90;;;;;;5119118;28;20664;-80
2022/10/20 08:28:37;;;;;;;11.80;6.60;;;8.00;99.90;;;;;;5119206;28;20311;-80
2022/10/20 08:31:06;;;;;;;12.23;7.00;;;8.00;99.90;;;;;;5117217;28;20288;-80
2022/10/20 08:33:34;;;;;;;16.17;7.90;;;8.10;99.90;;;;;;5118346;28;20319;-80
2022/10/20 08:36:02;;;;;;;13.80;7.47;;;8.10;99.90;;;;;;5116822;28;20201;-80
2022/10/20 08:38:29;;;;;;;10.87;7.30;;;8.10;99.90;;;;;;5117968;28;20220;-80
2022/10/20 08:40:57;;;;;;;14.17;7.40;;;8.20;99.90;;;;;;5116825;28;20201;-80
2022/10/20 08:43:25;;;;;;;11.67;7.37;;;8.20;99.90;;;;;;5118815;28;20268;-80
2022/10/20 08:45:52;;;;;;;13.30;7.17;;;8.20;99.90;;;;;;5118436;28;20207;-80
2022/10/20 08:48:22;;;;;;;9.67;7.00;;;8.20;99.90;;;;;;5119820;28;20221;-80
2022/10/20 08:50:51;;;;;;;14.47;8.10;;;8.30;99.90;;;;;;5119069;28;20201;-80
2022/10/20 08:53:19;;;;;;;14.07;7.30;;;8.40;99.90;;;;;;5118806;28;20224;-80
2022/10/20 08:55:47;;;;;;;11.50;7.30;;;8.40;99.90;;;;;;5117043;28;20197;-80
2022/10/20 08:58:16;;;;;;;11.50;7.50;;;8.40;99.90;;;;;;5117582;28;20209;-80
2022/10/20 09:00:44;;;;;;;12.77;8.10;;;8.60;99.90;;;;;;5118023;28;20201;-80
2022/10/20 09:03:17;;;;;;;14.47;8.37;;;8.70;99.90;;;;;;5117033;28;20613;-80
2022/10/20 09:05:48;;;;;;;17.60;8.30;;;8.80;99.90;;;;;;5119372;28;20201;-80
2022/10/20 09:08:18;;;;;;;12.33;7.97;;;8.80;99.90;;;;;;5118209;28;20274;-80
2022/10/20 09:10:49;;;;;;;13.07;7.70;;;8.90;99.90;;;;;;5116602;28;20193;-80
2022/10/20 09:13:22;;;;;;;17.30;8.20;;;8.80;99.90;;;;;;5116469;28;20232;-80
2022/10/20 09:15:50;;;;;;;15.50;8.03;;;9.00;99.90;;;;;;5117407;28;20599;-80
2022/10/20 09:18:18;;;;;;;13.00;7.70;;;9.00;99.90;;;;;;5116891;28;20213;-80
2022/10/20 09:20:50;;;;;;;14.43;8.33;;;9.00;99.90;;;;;;5116922;28;20283;-80
2022/10/20 09:23:23;;;;;;;19.83;8.43;;;9.10;99.90;;;;;;5097629;28;20711;-80
2022/10/20 09:25:51;;;;;;;14.23;7.47;;;9.20;99.90;;;;;;5098142;28;20676;-80
2022/10/20 09:28:22;;;;;;;12.70;7.50;;;9.30;99.90;;;;;;5115927;28;20197;-80
2022/10/20 09:30:49;;;;;;;11.43;7.17;;;9.40;99.90;;;;;;5116896;28;20204;-81
2022/10/20 09:33:28;;;;;;;11.77;7.13;;;9.40;99.90;;;;;;5117945;28;20216;-80
2022/10/20 09:36:00;;;;;;;13.17;8.17;;;9.50;99.90;;;;;;5115603;28;20197;-80
2022/10/20 09:38:31;;;;;;;13.00;8.30;;;9.60;99.90;;;;;;5117028;28;20228;-80
2022/10/20 09:41:08;;;;;;;13.17;7.67;;;9.80;99.90;;;;;;5116284;28;20502;-81
2022/10/20 09:43:39;;;;;;;15.07;8.40;;;9.70;99.90;;;;;;5117902;28;20197;-80
2022/10/20 09:46:08;;;;;;;13.13;7.73;;;9.90;99.90;;;;;;5117826;28;20212;-80
2022/10/20 09:48:37;;;;;;;11.80;8.00;;;10.10;99.90;;;;;;5115700;28;20602;-80
2022/10/20 09:51:07;;;;;;;12.10;7.00;;;10.30;99.90;;;;;;5116354;28;20201;-80
2022/10/20 09:53:39;;;;;;;14.30;7.83;;;10.30;99.90;;;;;;5115886;28;20274;-80
2022/10/20 09:56:06;;;;;;;13.03;7.73;;;10.20;99.90;;;;;;5114859;28;20226;-80
2022/10/20 09:58:36;;;;;;;11.13;7.63;;;10.30;99.90;;;;;;5115421;28;20613;-80
2022/10/20 10:01:05;;;;;;;11.30;6.73;;;10.30;99.90;;;;;;5116822;28;20197;-81
2022/10/20 10:03:39;;;;;;;11.07;7.70;;;10.30;99.90;;;;;;5115548;28;20677;-80
2022/10/20 10:06:21;;;;;;;10.77;7.07;;;10.40;99.90;;;;;;5117634;28;20209;-81
2022/10/20 10:08:49;;;;;;;13.37;7.57;;;10.40;99.90;;;;;;5116866;28;20221;-81
2022/10/20 10:11:18;;;;;;;11.80;7.43;;;10.50;99.90;;;;;;5115218;28;20295;-80
2022/10/20 10:13:48;;;;;;;11.90;6.83;;;10.60;99.90;;;;;;5115538;28;20232;-80
2022/10/20 10:16:18;;;;;;;11.93;7.37;;;10.80;99.90;;;;;;5116130;28;20208;-80
2022/10/20 10:18:54;;;;;;;10.70;8.10;;;10.80;99.90;;;;;;5115995;28;20221;-80
2022/10/20 10:21:22;;;;;;;12.70;8.00;;;11.00;99.90;;;;;;5111323;28;20268;-80
2022/10/20 10:23:55;;;;;;;12.80;7.90;;;11.10;99.90;;;;;;5115860;28;20208;-80
2022/10/20 10:26:44;;;;;;;12.17;7.90;;;11.20;99.90;;;;;;5115412;28;20205;-80
2022/10/20 10:29:19;;;;;;;14.83;8.27;;;11.20;73.40;;;;;;5115978;28;20224;-80
2022/10/20 10:31:58;;;;;;;13.63;8.73;;;11.20;99.90;;;;;;5115819;28;20219;-80
2022/10/20 10:34:37;;;;;;;12.87;8.03;;;11.40;99.90;;;;;;5116202;28;20226;-81
2022/10/20 10:37:04;;;;;;;17.77;7.47;;;11.50;1.00;;;;;;5116297;28;20199;-80
2022/10/20 10:39:35;;;;;;;11.27;7.00;;;11.60;1.00;;;;;;5114306;28;20896;-80
2022/10/20 10:42:39;;;;;;;10.77;7.30;;;11.60;1.00;;;;;;5114831;28;20215;-81
2022/10/20 10:45:24;;;;;;;11.37;7.30;;;11.60;1.00;;;;;;5115605;28;20197;-81
2022/10/20 10:48:18;;;;;;;10.13;6.93;;;11.70;1.00;;;;;;5114073;28;20212;-81
2022/10/20 10:50:51;;;;;;;10.33;6.77;;;11.70;1.00;;;;;;5114479;28;20242;-80
2022/10/20 10:53:33;;;;;;;10.57;7.30;;;11.80;1.00;;;;;;5116093;28;20235;-80
2022/10/20 10:56:13;;;;;;;9.20;6.87;;;11.90;1.00;;;;;;5115414;28;20197;-80
2022/10/20 10:58:46;;;;;;;11.30;6.30;;;12.20;99.90;;;;;;5115724;28;20223;-81
2022/10/20 11:01:26;;;;;;;10.93;6.63;;;12.60;1.00;;;;;;5114905;28;20685;-81
2022/10/20 11:04:21;;;;;;;10.40;7.80;;;12.50;89.90;;;;;;5116189;28;20207;-81
2022/10/20 11:06:56;;;;;;;11.47;6.87;;;12.60;1.00;;;;;;5118830;28;20201;-80
2022/10/20 11:09:31;;;;;;;12.70;7.40;;;12.70;99.90;;;;;;5119865;28;20224;-81
2022/10/20 11:12:16;;;;;;;11.63;7.30;;;12.60;99.90;;;;;;5119368;28;20200;-80
2022/10/20 11:14:54;;;;;;;10.23;6.60;;;12.50;99.90;;;;;;5120643;28;20231;-81
2022/10/20 11:17:37;;;;;;;9.87;6.47;;;12.50;1.00;;;;;;5119587;28;20570;-81
2022/10/20 11:20:25;;;;;;;8.70;6.03;;;12.60;99.90;;;;;;5118371;28;20228;-81
2022/10/20 11:23:13;;;;;;;7.33;6.30;;;12.70;1.00;;;;;;5119259;28;20219;-80
2022/10/20 11:25:48;;;;;;;11.20;6.33;;;13.10;4.50;;;;;;5119720;28;20209;-81
2022/10/20 11:28:27;;;;;;;9.43;6.73;;;13.50;1.00;;;;;;5118645;28;20670;-81
2022/10/20 11:30:56;;;;;;;8.23;6.30;;;13.30;99.90;;;;;;5119016;28;20212;-80
2022/10/20 11:33:27;;;;;;;10.30;6.90;;;13.10;1.00;;;;;;5119221;28;20221;-81
2022/10/20 11:35:58;;;;;;;11.20;7.27;;;13.30;1.00;;;;;;5119369;28;20197;-81
2022/10/20 11:38:31;;;;;;;11.10;6.80;;;13.90;79.20;;;;;;5119351;28;20700;-81
2022/10/20 11:41:03;;;;;;;9.87;5.93;;;13.80;1.00;;;;;;5118365;28;20239;-80
2022/10/20 11:43:36;;;;;;;11.03;7.30;;;13.80;1.00;;;;;;5119373;28;20287;-81
2022/10/20 11:46:07;;;;;;;8.63;6.20;;;13.80;1.00;;;;;;5119436;28;20588;-81
2022/10/20 11:48:40;;;;;;;8.97;6.50;;;14.00;1.00;;;;;;5118712;28;20597;-81
2022/10/20 11:51:25;;;;;;;7.80;6.07;;;13.90;1.00;;;;;;5118021;28;20657;-80
2022/10/20 11:54:13;;;;;;;9.17;6.40;;;14.30;1.00;;;;;;5119326;28;20715;-81
2022/10/20 11:56:58;;;;;;;8.27;6.20;;;13.90;1.00;;;;;;5118972;28;20719;-81
2022/10/20 12:00:02;;;;;;;8.27;6.10;;;13.90;1.00;;;;;;5118679;28;20224;-81
2022/10/20 12:03:08;;;;;;;9.57;5.70;;;13.90;1.00;;;;;;5117598;28;20652;-81
2022/10/20 12:05:53;;;;;;;8.80;6.17;;;13.80;99.90;;;;;;5107000;28;20201;-81
2022/10/20 12:08:43;;;;;;;11.37;7.60;;;13.80;1.00;;;;;;5119243;28;20668;-80
2022/10/20 12:11:16;;;;;;;12.63;7.37;;;13.70;1.00;;;;;;5119217;28;20204;-81
2022/10/20 12:13:52;;;;;;;11.47;6.33;;;13.70;99.90;;;;;;5119517;28;20228;-81
2022/10/20 12:16:52;;;;;;;10.07;7.30;;;14.00;1.00;;;;;;5119563;28;20207;-80
2022/10/20 12:19:22;;;;;;;9.30;6.33;;;14.00;12.50;;;;;;5117256;28;20229;-80
2022/10/20 12:21:57;;;;;;;9.20;7.00;;;14.30;1.00;;;;;;5119666;28;20219;-81
2022/10/20 12:24:33;;;;;;;10.87;6.97;;;14.40;1.00;;;;;;5117428;27;20670;-80
2022/10/20 12:27:17;;;;;;;10.30;7.50;;;14.50;1.00;;;;;;5123902;27;20197;-80
2022/10/20 12:29:52;;;;;;;10.80;6.50;;;14.70;99.90;;;;;;5118623;28;20221;-80
2022/10/20 12:32:52;;;;;;;10.70;6.97;;;15.10;1.00;;;;;;5114356;28;20203;-80
2022/10/20 12:35:45;;;;;;;11.07;7.17;;;15.50;1.00;;;;;;5100641;28;20228;-80
2022/10/20 12:38:17;;;;;;;14.07;8.30;;;15.10;1.00;;;;;;5078501;28;20208;-79
2022/10/20 12:40:49;;;;;;;8.53;6.53;;;14.60;99.90;;;;;;5116838;28;20205;-80
2022/10/20 12:43:25;;;;;;;10.10;7.27;;;14.80;1.00;;;;;;5116944;28;20197;-80
2022/10/20 12:45:58;;;;;;;12.93;7.17;;;15.00;1.00;;;;;;5111328;28;20200;-80
2022/10/20 12:48:25;;;;;;;10.87;7.10;;;15.60;99.90;;;;;;5118492;28;20217;-80
2022/10/20 12:51:01;;;;;;;10.50;7.13;;;15.40;1.00;;;;;;5117521;28;20207;-80
2022/10/20 12:53:30;;;;;;;12.38;7.00;;;15.20;1.00;;;;;;5117615;28;20225;-80
2022/10/20 12:56:00;;;;;;;10.03;6.97;;;14.90;99.90;;;;;;5119750;27;20201;-80
2022/10/20 12:58:30;;;;;;;8.02;6.45;;;15.00;99.90;;;;;;5120199;27;20197;-80
2022/10/20 13:01:11;;;;;;;10.77;6.35;;;15.30;99.90;;;;;;5115434;27;20193;-80
2022/10/20 13:03:45;;;;;;;9.23;5.95;;;15.30;1.00;;;;;;5117380;28;20197;-80
2022/10/20 13:06:41;;;;;;;7.80;5.40;;;15.60;1.00;;;;;;5117682;28;20228;-80
2022/10/20 13:09:21;;;;;;;7.28;5.25;;;15.60;16.00;;;;;;5110481;28;20633;-80